Time;durP1;ratioP1;P1;durP2;ratioP2;P2;SDS_P1;SDS_P2;PMS_P1;PMS_P2;Temp;Humidity;BMP_temperature;BMP_pressure;BME280_temperature;BME280_humidity;BME280_pressure;Samples;Min_cycle;Max_cycle;Signal;HPM_P1;HPM_P2
2023/08/29 00:02:06;;;;;;;1.63;0.50;;;;;;;19.68;74.23;100969.06;5019162;28;20283;-56
2023/08/29 00:04:37;;;;;;;0.60;0.40;;;;;;;19.83;75.52;100968.41;5034191;28;20354;-57
2023/08/29 00:07:08;;;;;;;1.10;0.40;;;;;;;20.02;74.89;100967.59;5017729;28;20291;-59
2023/08/29 00:09:39;;;;;;;0.80;0.50;;;;;;;20.10;73.95;100970.78;5018393;28;20638;-58
2023/08/29 00:12:10;;;;;;;4.93;0.60;;;;;;;19.98;73.63;100966.00;5012272;28;20821;-57
2023/08/29 00:14:45;;;;;;;1.53;0.60;;;;;;;20.00;73.51;100964.16;5022356;28;20390;-57
2023/08/29 00:17:16;;;;;;;1.60;0.40;;;;;;;19.91;73.28;100970.72;5011530;28;20348;-58
2023/08/29 00:19:47;;;;;;;1.73;0.50;;;;;;;19.99;73.75;100962.41;5023452;28;20295;-57
2023/08/29 00:22:18;;;;;;;1.07;0.60;;;;;;;20.20;73.54;100971.22;5012450;28;20267;-57
2023/08/29 00:24:52;;;;;;;0.90;0.57;;;;;;;20.42;71.81;100966.66;5022018;28;20357;-56
2023/08/29 00:27:22;;;;;;;0.80;0.40;;;;;;;20.56;71.15;100957.22;5011320;28;20711;-59
2023/08/29 00:29:55;;;;;;;2.23;0.53;;;;;;;20.51;71.66;100973.31;5022004;28;20288;-58
2023/08/29 00:32:25;;;;;;;1.03;0.53;;;;;;;20.65;71.62;100973.56;5011906;28;20288;-58
2023/08/29 00:34:56;;;;;;;1.07;0.57;;;;;;;20.67;71.75;100974.38;5021249;28;20278;-57
2023/08/29 00:37:27;;;;;;;0.40;0.40;;;;;;;20.67;69.95;100977.03;5022358;28;20286;-59
2023/08/29 00:39:57;;;;;;;0.40;0.40;;;;;;;20.67;68.57;100971.72;5015574;28;20283;-57
2023/08/29 00:42:28;;;;;;;1.33;0.90;;;;;;;20.79;71.43;100974.69;5022162;28;20341;-56
2023/08/29 00:45:00;;;;;;;5.03;0.67;;;;;;;20.84;70.09;100978.88;5012180;28;20628;-58
2023/08/29 00:47:31;;;;;;;1.00;0.50;;;;;;;20.74;70.81;100976.72;5021498;28;20746;-57
2023/08/29 00:50:02;;;;;;;2.00;0.50;;;;;;;20.75;71.14;100967.84;5011262;28;20280;-57
2023/08/29 00:52:33;;;;;;;1.10;0.50;;;;;;;20.75;70.53;100967.84;5022243;28;20390;-56
2023/08/29 00:55:04;;;;;;;0.70;0.50;;;;;;;20.80;70.08;100982.59;5011446;28;20804;-58
2023/08/29 00:57:34;;;;;;;2.43;0.40;;;;;;;20.87;69.46;100983.19;5021437;28;21543;-58
2023/08/29 01:00:08;;;;;;;1.20;0.47;;;;;;;21.01;70.73;100983.34;5011895;28;20742;-57
2023/08/29 01:02:39;;;;;;;0.87;0.53;;;;;;;21.05;68.82;100982.28;5020868;28;20284;-56
2023/08/29 01:05:09;;;;;;;3.90;0.60;;;;;;;20.98;68.15;100975.53;5010514;28;20321;-57
2023/08/29 01:07:40;;;;;;;1.83;0.50;;;;;;;20.99;68.50;100971.97;5022301;28;20287;-60
2023/08/29 01:10:12;;;;;;;0.97;0.63;;;;;;;21.21;66.99;100970.91;5009157;28;20646;-57
2023/08/29 01:12:49;;;;;;;3.50;0.60;;;;;;;21.27;68.78;100975.94;5031292;28;20449;-58
2023/08/29 01:15:25;;;;;;;1.57;0.50;;;;;;;21.23;68.43;100963.72;5016192;28;20271;-58
2023/08/29 01:18:00;;;;;;;19.07;4.70;;;;;;;21.18;68.64;100965.75;5021590;28;20358;-58
2023/08/29 01:20:32;;;;;;;3.40;0.90;;;;;;;21.27;68.43;100959.97;4999026;28;20280;-59
2023/08/29 01:23:09;;;;;;;2.80;0.70;;;;;;;21.28;69.45;100961.69;5009639;28;20735;-58
2023/08/29 01:25:50;;;;;;;0.83;0.50;;;;;;;21.29;70.16;100958.09;5008017;28;20280;-59
2023/08/29 01:28:24;;;;;;;11.83;1.93;;;;;;;21.17;69.83;100954.25;4995886;28;20312;-58
2023/08/29 01:30:56;;;;;;;2.37;0.53;;;;;;;21.07;68.19;100951.19;5024375;28;20330;-59
2023/08/29 01:33:28;;;;;;;4.10;0.50;;;;;;;21.07;70.50;100942.38;5019482;28;20341;-59
2023/08/29 01:35:58;;;;;;;3.13;0.70;;;;;;;21.33;69.42;100954.34;4994199;28;20338;-57
2023/08/29 01:38:29;;;;;;;1.60;0.63;;;;;;;21.34;67.69;100958.72;5015578;28;20267;-58
2023/08/29 01:40:59;;;;;;;1.70;0.73;;;;;;;21.50;65.78;100961.50;5015143;28;20282;-58
2023/08/29 01:43:32;;;;;;;2.77;0.73;;;;;;;21.68;65.96;100959.69;5024423;28;20344;-58
2023/08/29 01:46:03;;;;;;;0.93;0.53;;;;;;;21.75;65.13;100956.66;5015355;28;20295;-58
2023/08/29 01:48:36;;;;;;;1.30;0.47;;;;;;;21.78;64.59;100950.31;5022858;28;20139;-58
2023/08/29 01:51:07;;;;;;;1.83;0.60;;;;;;;21.71;64.14;100948.91;5017027;28;20471;-60
2023/08/29 01:53:39;;;;;;;1.57;0.80;;;;;;;21.63;65.44;100940.47;5028568;28;20282;-59
2023/08/29 01:56:13;;;;;;;1.10;0.40;;;;;;;21.64;64.66;100942.16;5017918;28;20049;-58
2023/08/29 01:58:47;;;;;;;0.83;0.60;;;;;;;21.60;65.65;100935.31;5030782;28;20365;-58
2023/08/29 02:01:18;;;;;;;0.97;0.50;;;;;;;21.68;63.13;100946.41;5017686;28;21061;-59
2023/08/29 02:03:52;;;;;;;5.13;1.03;;;;;;;21.74;64.82;100954.06;5020660;28;20052;-58
2023/08/29 02:06:23;;;;;;;0.90;0.60;;;;;;;21.67;64.48;100936.72;4999233;28;20375;-58
2023/08/29 02:08:54;;;;;;;3.03;0.70;;;;;;;21.74;63.23;100948.72;5001165;28;20655;-58
2023/08/29 02:11:24;;;;;;;1.17;0.43;;;;;;;21.57;63.82;100906.19;5010608;28;20122;-58
2023/08/29 02:13:59;;;;;;;2.80;0.50;;;;;;;21.90;63.45;100944.34;5014221;28;20064;-57
2023/08/29 02:16:31;;;;;;;1.57;0.47;;;;;;;21.92;63.09;100939.81;5020563;28;20136;-57
2023/08/29 02:19:02;;;;;;;0.97;0.60;;;;;;;22.00;63.23;100949.19;5001723;28;20057;-57
2023/08/29 02:21:33;;;;;;;3.27;0.73;;;;;;;21.93;62.69;100949.50;5001019;28;20049;-58
2023/08/29 02:24:04;;;;;;;1.03;0.63;;;;;;;21.95;63.40;100952.94;5008148;28;20048;-58
2023/08/29 02:26:35;;;;;;;1.27;0.60;;;;;;;21.90;62.26;100954.97;5019512;28;20083;-58
2023/08/29 02:29:07;;;;;;;2.33;0.93;;;;;;;21.93;62.36;100943.31;5001290;28;20049;-57
2023/08/29 02:31:38;;;;;;;2.87;0.50;;;;;;;21.98;61.04;100933.28;5000214;28;20270;-58
2023/08/29 02:34:09;;;;;;;0.90;0.57;;;;;;;22.11;61.45;100933.47;4992670;28;20049;-58
2023/08/29 02:36:40;;;;;;;0.97;0.63;;;;;;;22.19;61.94;100933.94;5020296;28;20071;-57
2023/08/29 02:39:12;;;;;;;4.20;0.60;;;;;;;22.24;60.44;100934.59;5011017;28;20049;-58
2023/08/29 02:41:43;;;;;;;0.83;0.60;;;;;;;22.26;62.43;100930.03;5024241;28;20037;-58
2023/08/29 02:44:15;;;;;;;1.77;0.70;;;;;;;22.48;61.75;100935.03;5014655;28;20045;-58
2023/08/29 02:46:47;;;;;;;1.23;0.80;;;;;;;22.36;59.05;100920.59;5025084;28;20053;-58
2023/08/29 02:49:17;;;;;;;0.77;0.50;;;;;;;22.35;60.51;100923.34;5014173;28;20107;-57
2023/08/29 02:51:48;;;;;;;0.60;0.43;;;;;;;22.37;59.33;100932.97;5024258;28;20041;-57
2023/08/29 02:54:19;;;;;;;0.73;0.60;;;;;;;22.30;59.55;100936.91;5013925;28;20057;-58
2023/08/29 02:56:51;;;;;;;1.07;0.60;;;;;;;22.22;59.37;100944.47;5024149;28;20372;-57
2023/08/29 02:59:23;;;;;;;1.77;0.70;;;;;;;22.20;59.44;100935.69;5013441;28;20062;-58
2023/08/29 03:01:53;;;;;;;2.10;0.90;;;;;;;22.34;59.73;100938.47;5024578;28;20053;-58
2023/08/29 03:04:24;;;;;;;3.70;0.90;;;;;;;22.42;59.37;100946.03;5013900;28;20425;-57
2023/08/29 03:06:55;;;;;;;3.87;0.80;;;;;;;22.33;59.25;100941.19;5024185;28;20152;-56
2023/08/29 03:09:28;;;;;;;1.73;0.70;;;;;;;22.32;58.34;100945.69;5013602;28;20047;-59
2023/08/29 03:11:59;;;;;;;2.00;0.70;;;;;;;22.33;58.62;100947.38;5013831;28;20080;-58
2023/08/29 03:14:31;;;;;;;1.00;0.70;;;;;;;22.30;58.67;100952.88;5023619;28;20138;-58
2023/08/29 03:17:03;;;;;;;0.63;0.50;;;;;;;22.35;58.03;100961.47;5013374;28;20053;-58
2023/08/29 03:19:34;;;;;;;2.97;0.60;;;;;;;22.55;58.52;100955.06;5024214;28;20057;-57
2023/08/29 03:22:05;;;;;;;3.23;0.80;;;;;;;22.60;59.35;100965.47;5013433;28;20048;-59
2023/08/29 03:24:35;;;;;;;2.17;0.67;;;;;;;22.68;58.30;100963.22;5023108;28;20142;-58
2023/08/29 03:27:06;;;;;;;1.00;0.60;;;;;;;22.70;59.23;100949.81;5013537;28;20110;-59
2023/08/29 03:29:38;;;;;;;2.37;0.80;;;;;;;22.88;57.81;100958.56;5024260;28;20041;-58
2023/08/29 03:32:10;;;;;;;2.80;0.70;;;;;;;22.81;56.07;100966.03;5013106;28;20084;-59
2023/08/29 03:34:40;;;;;;;0.93;0.63;;;;;;;22.72;56.14;100967.44;5023579;28;20049;-59
2023/08/29 03:37:11;;;;;;;1.10;0.70;;;;;;;22.60;57.53;100946.81;5013626;28;20430;-57
2023/08/29 03:39:42;;;;;;;2.50;0.80;;;;;;;22.57;54.01;100965.63;5022517;28;20436;-57
2023/08/29 03:42:12;;;;;;;2.80;0.80;;;;;;;22.63;54.30;100964.44;5013267;28;20045;-57
2023/08/29 03:44:45;;;;;;;1.73;0.87;;;;;;;22.67;52.25;100956.19;5023798;28;20052;-59
2023/08/29 03:47:15;;;;;;;1.57;0.93;;;;;;;22.62;48.69;100958.25;5013595;28;20060;-58
2023/08/29 03:49:46;;;;;;;1.77;1.10;;;;;;;22.50;46.80;100964.25;5023527;28;20535;-58
2023/08/29 03:52:23;;;;;;;6.57;1.40;;;;;;;22.53;46.83;100950.75;5013060;28;20716;-57
2023/08/29 03:54:55;;;;;;;1.90;1.17;;;;;;;22.76;46.18;100952.97;5022999;28;20057;-57
2023/08/29 03:57:26;;;;;;;5.97;1.47;;;;;;;22.86;43.99;100947.13;5012626;28;20045;-57
2023/08/29 03:59:58;;;;;;;1.90;1.10;;;;;;;22.91;42.41;100953.91;5017270;28;20049;-58
2023/08/29 04:02:29;;;;;;;3.20;1.00;;;;;;;22.96;43.39;100951.00;5022511;28;20688;-58
2023/08/29 04:05:14;;;;;;;2.40;1.13;;;;;;;22.66;45.87;100874.53;5011731;28;20440;-58
2023/08/29 04:07:46;;;;;;;4.30;1.13;;;;;;;23.05;47.42;100950.50;5022101;28;20053;-58
2023/08/29 04:10:17;;;;;;;6.30;1.20;;;;;;;23.09;46.86;100945.84;5009760;28;20607;-57
2023/08/29 04:12:47;;;;;;;3.27;1.10;;;;;;;23.04;46.44;100948.81;5021482;28;20037;-58
2023/08/29 04:15:20;;;;;;;3.70;1.27;;;;;;;23.07;45.55;100947.78;4991889;28;20053;-59
2023/08/29 04:17:51;;;;;;;2.10;0.93;;;;;;;22.99;46.65;100932.22;5008858;28;20118;-58
2023/08/29 04:20:22;;;;;;;3.67;1.20;;;;;;;23.05;46.60;100945.19;5002981;28;20132;-56
2023/08/29 04:22:53;;;;;;;3.80;1.17;;;;;;;22.92;46.20;100949.47;5022966;28;20139;-59
2023/08/29 04:25:26;;;;;;;1.50;0.83;;;;;;;22.82;46.92;100954.47;5011690;28;20533;-58
2023/08/29 04:27:56;;;;;;;4.60;1.27;;;;;;;22.82;50.09;100955.31;5017044;28;20148;-58
2023/08/29 04:30:29;;;;;;;2.00;1.10;;;;;;;22.81;47.81;100953.63;5022046;28;21383;-58
2023/08/29 04:33:00;;;;;;;1.80;1.10;;;;;;;22.78;45.59;100947.59;5012738;28;20045;-57
2023/08/29 04:35:30;;;;;;;5.10;1.23;;;;;;;22.74;48.40;100936.25;5022377;28;20110;-58
2023/08/29 04:38:01;;;;;;;2.90;1.10;;;;;;;22.88;49.41;100939.94;5012857;28;20460;-58
2023/08/29 04:40:32;;;;;;;3.20;1.03;;;;;;;22.80;47.87;100946.53;5022680;28;20122;-58
2023/08/29 04:43:03;;;;;;;3.83;1.60;;;;;;;22.83;48.62;100941.03;5011304;28;20147;-59
2023/08/29 04:45:35;;;;;;;2.00;1.20;;;;;;;22.80;48.01;100929.72;5023076;28;20057;-58
2023/08/29 04:48:06;;;;;;;3.17;1.00;;;;;;;22.78;47.58;100943.09;5018720;28;20128;-59
2023/08/29 04:50:39;;;;;;;0.97;0.80;;;;;;;22.80;49.22;100946.53;5025914;28;20040;-60
2023/08/29 04:53:09;;;;;;;3.57;1.23;;;;;;;22.83;49.20;100948.19;5000766;28;20399;-60
2023/08/29 04:55:40;;;;;;;5.40;1.10;;;;;;;22.62;50.21;100910.31;5009466;28;20128;-57
2023/08/29 04:58:10;;;;;;;3.57;1.23;;;;;;;22.81;48.13;100947.41;5028241;28;20084;-61
2023/08/29 05:00:42;;;;;;;3.07;1.20;;;;;;;22.86;50.26;100949.81;5049573;28;20036;-61
2023/08/29 05:03:14;;;;;;;18.27;3.30;;;;;;;22.86;50.90;100944.47;5019880;28;20051;-60
2023/08/29 05:05:47;;;;;;;3.20;1.30;;;;;;;22.80;49.09;100957.19;5031552;28;20040;-60
2023/08/29 05:08:18;;;;;;;4.27;1.10;;;;;;;22.66;50.03;100943.78;5020638;28;20057;-57
2023/08/29 05:10:48;;;;;;;40.10;6.23;;;;;;;22.64;50.40;100955.47;5013836;28;20041;-62
2023/08/29 05:13:19;;;;;;;5.80;1.60;;;;;;;22.65;51.09;100963.41;5000790;28;20087;-60
2023/08/29 05:15:51;;;;;;;3.67;1.20;;;;;;;22.72;50.83;100962.13;5009987;28;20415;-61
2023/08/29 05:18:21;;;;;;;5.20;1.73;;;;;;;22.77;50.51;100968.03;5013014;28;20478;-59
2023/08/29 05:20:52;;;;;;;5.30;1.37;;;;;;;22.83;51.82;100978.34;5034969;28;20090;-60
2023/08/29 05:23:24;;;;;;;3.77;1.20;;;;;;;22.94;51.44;100979.53;5009529;28;20068;-60
2023/08/29 05:25:55;;;;;;;3.63;1.20;;;;;;;22.82;51.57;100965.13;5021665;28;20047;-59
2023/08/29 05:28:26;;;;;;;1.63;1.20;;;;;;;22.87;50.98;100978.19;4998740;28;20407;-59
2023/08/29 05:30:58;;;;;;;3.73;1.30;;;;;;;22.96;51.49;100972.31;5010593;28;20193;-60
2023/08/29 05:33:29;;;;;;;7.33;1.53;;;;;;;22.93;49.81;100972.50;5016383;28;20060;-60
2023/08/29 05:36:00;;;;;;;5.53;1.40;;;;;;;22.88;49.58;100974.56;5011226;28;20068;-57
2023/08/29 05:38:31;;;;;;;9.90;1.60;;;;;;;22.92;50.77;100970.78;5021043;28;20049;-59
2023/08/29 05:41:02;;;;;;;2.60;1.40;;;;;;;22.97;50.32;100974.06;5011232;28;20139;-61
2023/08/29 05:43:33;;;;;;;1.97;1.10;;;;;;;22.85;51.12;100974.75;5022325;28;20494;-61
2023/08/29 05:46:06;;;;;;;3.70;1.17;;;;;;;22.80;51.03;100962.53;5010296;28;20052;-60
2023/08/29 05:48:36;;;;;;;2.07;1.00;;;;;;;22.59;52.16;100927.31;5001486;28;20107;-61
2023/08/29 05:51:07;;;;;;;1.63;0.90;;;;;;;22.75;50.66;100969.94;4990734;28;20053;-59
2023/08/29 05:53:38;;;;;;;3.90;1.20;;;;;;;22.68;52.08;100965.88;5015058;28;20967;-59
2023/08/29 05:56:09;;;;;;;3.17;1.23;;;;;;;22.66;52.48;100969.56;5010236;28;20149;-60
2023/08/29 05:58:39;;;;;;;3.90;1.13;;;;;;;22.59;51.47;100971.75;5021487;28;20049;-62
2023/08/29 06:01:11;;;;;;;2.90;1.40;;;;;;;22.58;50.04;100978.00;5011386;28;20052;-62
2023/08/29 06:03:42;;;;;;;3.67;1.20;;;;;;;22.58;49.97;100980.66;5020631;28;20091;-59
2023/08/29 06:06:13;;;;;;;4.70;1.10;;;;;;;22.61;51.09;100983.16;5010557;28;20044;-61
2023/08/29 06:08:44;;;;;;;2.53;1.00;;;;;;;22.59;49.82;100979.72;5020364;28;20748;-59
2023/08/29 06:11:15;;;;;;;6.87;1.67;;;;;;;22.55;49.76;100983.50;5011560;28;20140;-59
2023/08/29 06:13:46;;;;;;;2.50;1.30;;;;;;;22.54;51.73;100976.44;5023200;28;20082;-58
2023/08/29 06:16:18;;;;;;;6.03;1.20;;;;;;;22.59;52.40;100974.41;5015785;28;20056;-61
2023/08/29 06:18:49;;;;;;;6.67;1.57;;;;;;;22.61;51.26;100984.03;5024398;28;20294;-59
2023/08/29 06:21:19;;;;;;;7.00;1.33;;;;;;;22.55;51.49;100975.50;5015010;28;20140;-60
2023/08/29 06:23:50;;;;;;;7.73;1.63;;;;;;;22.56;53.02;100975.41;5025062;28;20757;-58
2023/08/29 06:26:20;;;;;;;6.13;1.50;;;;;;;22.57;53.20;100962.97;5014725;28;20083;-60
2023/08/29 06:28:51;;;;;;;6.60;1.30;;;;;;;22.58;52.18;100970.84;5024457;28;20175;-60
2023/08/29 06:31:23;;;;;;;6.63;1.20;;;;;;;22.49;53.02;100970.50;4994258;28;20085;-59
2023/08/29 06:33:54;;;;;;;3.50;1.30;;;;;;;22.47;52.69;100975.06;5004739;28;20049;-59
2023/08/29 06:36:24;;;;;;;2.37;1.43;;;;;;;22.46;53.81;100978.66;5014564;28;20049;-61
2023/08/29 06:38:55;;;;;;;10.53;1.87;;;;;;;22.40;52.38;100980.72;5024247;28;20120;-60
2023/08/29 06:41:26;;;;;;;8.63;1.50;;;;;;;22.39;53.13;100968.38;5011458;28;20950;-59
2023/08/29 06:43:56;;;;;;;7.13;1.20;;;;;;;22.34;52.89;100974.84;5021986;28;20057;-59
2023/08/29 06:46:29;;;;;;;6.03;1.10;;;;;;;22.27;54.06;100963.69;5024457;28;20609;-60
2023/08/29 06:48:59;;;;;;;4.60;1.53;;;;;;;22.19;53.91;100965.91;5014290;28;20053;-57
2023/08/29 06:51:30;;;;;;;3.57;1.20;;;;;;;22.18;53.55;100969.47;5023913;28;20056;-60
2023/08/29 06:54:00;;;;;;;3.37;1.30;;;;;;;22.15;54.40;100973.16;5013772;28;20049;-59
2023/08/29 06:56:31;;;;;;;6.33;1.20;;;;;;;22.14;54.65;100978.56;5024852;28;20056;-60
2023/08/29 06:59:01;;;;;;;5.30;1.40;;;;;;;22.13;54.43;100976.84;5014240;28;20543;-59
2023/08/29 07:01:33;;;;;;;8.67;1.93;;;;;;;22.13;55.26;100982.19;5024059;28;20119;-59
2023/08/29 07:04:04;;;;;;;4.17;1.23;;;;;;;22.08;55.58;100973.56;5013918;28;20041;-61
2023/08/29 07:06:35;;;;;;;3.90;1.10;;;;;;;22.06;57.09;100978.13;5024267;28;20045;-60
2023/08/29 07:09:07;;;;;;;3.77;1.37;;;;;;;21.97;54.38;100977.66;5013588;28;20704;-59
2023/08/29 07:11:37;;;;;;;3.00;1.00;;;;;;;22.01;55.33;100982.81;5019052;28;20060;-59
2023/08/29 07:14:08;;;;;;;5.50;1.10;;;;;;;22.01;54.50;100982.81;4993913;28;20144;-60
2023/08/29 07:16:40;;;;;;;1.90;1.00;;;;;;;21.93;55.35;100976.09;5004677;28;20053;-60
2023/08/29 07:19:19;;;;;;;3.80;1.20;;;;;;;21.91;55.44;100983.28;4994272;28;20053;-60
2023/08/29 07:21:49;;;;;;;3.40;1.00;;;;;;;21.90;54.58;100986.06;5003608;28;20093;-60
2023/08/29 07:24:21;;;;;;;3.90;1.20;;;;;;;21.88;53.15;100994.09;4993721;28;20089;-59
2023/08/29 07:26:52;;;;;;;5.63;1.13;;;;;;;21.81;53.74;100997.16;5011156;28;20056;-60
2023/08/29 07:29:22;;;;;;;2.13;0.90;;;;;;;21.71;51.92;100999.44;4993971;28;20064;-60
2023/08/29 07:31:55;;;;;;;3.70;1.00;;;;;;;21.60;52.18;101007.13;5003740;28;20061;-61
2023/08/29 07:34:25;;;;;;;5.07;1.10;;;;;;;21.50;52.19;101002.25;4993279;28;20052;-58
2023/08/29 07:36:56;;;;;;;13.13;1.30;;;;;;;21.44;53.15;101010.53;5018889;28;20059;-59
2023/08/29 07:39:26;;;;;;;3.77;1.00;;;;;;;21.37;52.95;101017.06;5023401;28;20126;-60
2023/08/29 07:41:57;;;;;;;1.47;0.93;;;;;;;21.37;53.22;101019.72;5016684;28;20345;-60
2023/08/29 07:44:27;;;;;;;4.60;0.80;;;;;;;21.37;53.34;101019.72;5024184;28;20754;-59
2023/08/29 07:47:00;;;;;;;6.87;1.00;;;;;;;21.36;55.95;101012.66;5013100;28;20272;-60
2023/08/29 07:49:33;;;;;;;1.97;0.90;;;;;;;21.27;57.59;101016.66;5023246;28;20275;-61
2023/08/29 07:52:04;;;;;;;6.07;1.37;;;;;;;21.23;58.27;101016.88;5013731;28;20283;-60
2023/08/29 07:54:34;;;;;;;4.10;0.90;;;;;;;21.18;59.62;101018.91;5023729;28;20310;-60
2023/08/29 07:57:05;;;;;;;4.60;1.03;;;;;;;21.07;60.99;101017.63;5013091;28;20287;-61
2023/08/29 07:59:35;;;;;;;1.40;0.70;;;;;;;20.94;60.62;101019.13;5021962;28;20379;-61
2023/08/29 08:02:08;;;;;;;5.93;0.97;;;;;;;20.86;61.42;101039.88;5013501;28;20279;-60
2023/08/29 08:04:39;;;;;;;5.90;1.20;;;;;;;20.68;61.18;101026.53;5022661;28;20283;-60
2023/08/29 08:07:09;;;;;;;10.37;1.73;;;;;;;20.57;61.63;101038.59;5014990;28;20383;-62
2023/08/29 08:09:40;;;;;;;13.30;1.30;;;;;;;20.11;62.64;100982.22;5032048;28;20742;-59
2023/08/29 08:12:11;;;;;;;10.87;1.63;;;;;;;20.30;63.40;101035.38;5013391;28;20379;-60
2023/08/29 08:14:41;;;;;;;4.97;1.20;;;;;;;20.24;64.10;101037.34;5023040;28;20830;-60
2023/08/29 08:17:14;;;;;;;4.20;1.23;;;;;;;20.21;65.18;101037.47;5012704;28;20290;-58
2023/08/29 08:19:47;;;;;;;12.27;1.37;;;;;;;20.11;65.54;101038.81;5023476;28;20302;-59
2023/08/29 08:22:17;;;;;;;9.73;1.10;;;;;;;20.07;66.22;101039.88;5012885;28;20577;-60
2023/08/29 08:24:48;;;;;;;15.03;1.50;;;;;;;19.97;66.46;101043.88;5022078;28;20299;-60
2023/08/29 08:27:19;;;;;;;16.27;2.20;;;;;;;19.85;66.89;101044.41;5012524;28;20362;-58
2023/08/29 08:29:50;;;;;;;16.20;1.50;;;;;;;19.48;67.58;100983.13;5022354;28;20286;-60
2023/08/29 08:32:22;;;;;;;13.03;1.07;;;;;;;19.75;67.62;101044.78;5004018;28;20275;-60
2023/08/29 08:34:53;;;;;;;13.20;1.40;;;;;;;19.69;68.43;101047.66;5023222;28;20365;-60
2023/08/29 08:37:24;;;;;;;6.17;1.00;;;;;;;19.61;68.46;101036.50;5011256;28;20288;-59
2023/08/29 08:39:54;;;;;;;4.73;1.07;;;;;;;19.55;69.09;101048.22;5022167;28;20390;-61
2023/08/29 08:42:25;;;;;;;3.10;1.13;;;;;;;19.53;69.24;101051.88;4992243;28;20280;-60
2023/08/29 08:44:58;;;;;;;7.17;1.10;;;;;;;19.47;69.48;101046.78;5012670;28;20267;-59
2023/08/29 08:47:30;;;;;;;4.17;0.90;;;;;;;19.40;70.08;101055.00;5022454;28;20291;-60
2023/08/29 08:50:01;;;;;;;2.23;1.13;;;;;;;19.22;70.41;101038.97;5012895;28;20283;-59
2023/08/29 08:52:35;;;;;;;14.87;1.40;;;;;;;19.24;70.87;101064.47;5021969;28;20788;-59
2023/08/29 08:55:06;;;;;;;7.70;1.37;;;;;;;19.28;72.37;101050.19;5012066;28;20271;-60
2023/08/29 08:57:38;;;;;;;3.77;0.90;;;;;;;19.17;75.29;101057.72;5021653;28;20291;-59
2023/08/29 09:00:21;;;;;;;8.70;1.23;;;;;;;18.90;78.18;101071.13;5011747;28;20389;-58
2023/08/29 09:03:02;;;;;;;6.00;1.07;;;;;;;18.63;79.96;101066.81;5021459;28;20279;-60
2023/08/29 09:05:34;;;;;;;4.35;1.13;;;;;;;18.37;82.28;101057.16;5011655;28;20927;-59
2023/08/29 09:08:09;;;;;;;5.37;1.20;;;;;;;18.22;84.06;101061.22;5011782;28;20140;-58
2023/08/29 09:10:41;;;;;;;5.30;0.93;;;;;;;18.11;85.13;101075.69;5022181;28;20272;-63
2023/08/29 09:13:17;;;;;;;6.10;1.07;;;;;;;17.98;85.05;101068.25;5011762;28;20319;-60
2023/08/29 09:16:05;;;;;;;5.33;1.23;;;;;;;18.03;86.21;101083.03;5021671;28;20825;-60
2023/08/29 09:18:46;;;;;;;6.60;1.33;;;;;;;18.09;85.44;101093.38;5021756;28;20382;-60
2023/08/29 09:21:24;;;;;;;8.20;1.27;;;;;;;17.99;84.39;101073.47;5011525;28;20742;-61
2023/08/29 09:23:56;;;;;;;15.90;1.63;;;;;;;18.00;84.67;101084.94;5020195;28;20287;-60
2023/08/29 09:26:32;;;;;;;3.33;1.20;;;;;;;17.86;85.20;101090.69;5010926;28;20555;-60
2023/08/29 09:29:18;;;;;;;9.73;3.00;;;;;;;17.56;85.42;101093.38;5011356;28;20302;-59
2023/08/29 09:31:49;;;;;;;7.07;1.93;;;;;;;17.27;85.92;101090.78;5021604;28;20275;-60
2023/08/29 09:34:31;;;;;;;8.40;1.83;;;;;;;16.72;86.54;101080.91;5010959;28;20401;-60
2023/08/29 09:37:17;;;;;;;15.00;2.60;;;;;;;16.52;88.11;101107.00;5011584;28;20790;-58
2023/08/29 09:39:49;;;;;;;11.30;1.70;;;;;;;16.30;89.73;101107.59;5021931;28;20281;-61
2023/08/29 09:45:55;;;;;;;11.37;1.50;;;;;;;15.89;92.47;101106.88;5001458;28;20307;-62
2023/08/29 09:48:27;;;;;;;3.27;0.80;;;;;;;15.74;93.44;101107.28;4989870;28;20334;-60
2023/08/29 09:51:01;;;;;;;9.13;1.23;;;;;;;15.64;94.38;101106.59;4991436;28;20397;-61
2023/08/29 09:53:34;;;;;;;7.20;1.20;;;;;;;15.58;95.12;101116.44;5005956;28;20298;-60
2023/08/29 09:56:07;;;;;;;9.40;1.60;;;;;;;15.27;96.48;101069.72;5010737;28;20288;-59
2023/08/29 09:58:40;;;;;;;12.50;1.67;;;;;;;15.32;98.06;101067.84;5020689;28;20626;-62
2023/08/29 10:01:14;;;;;;;20.07;4.03;;;;;;;15.59;98.75;101107.59;5011323;28;20367;-62
2023/08/29 10:03:47;;;;;;;19.30;9.17;;;;;;;15.67;99.75;101110.91;5020624;28;20295;-62
2023/08/29 10:06:21;;;;;;;11.97;2.20;;;;;;;15.74;100.00;101112.53;5010082;28;20284;-60
2023/08/29 10:09:01;;;;;;;11.50;3.53;;;;;;;14.83;99.80;100985.59;5020675;28;20810;-60
2023/08/29 10:11:34;;;;;;;7.70;3.47;;;;;;;15.37;99.54;101118.63;5010893;28;20354;-61
2023/08/29 10:14:23;;;;;;;7.68;3.20;;;;;;;15.20;100.00;101115.50;5011299;28;20290;-61
2023/08/29 10:16:58;;;;;;;18.93;3.93;;;;;;;15.08;100.00;101111.38;5021142;28;20060;-60
2023/08/29 10:19:32;;;;;;;7.17;3.47;;;;;;;14.88;100.00;101088.13;5010160;28;20279;-59
2023/08/29 10:22:07;;;;;;;8.87;3.20;;;;;;;14.69;100.00;101076.25;5010136;28;20283;-62
2023/08/29 10:24:39;;;;;;;11.23;2.60;;;;;;;14.78;100.00;101097.13;5020040;28;20412;-58
2023/08/29 10:27:11;;;;;;;10.27;2.33;;;;;;;14.73;100.00;101109.50;5009585;28;20379;-60
2023/08/29 10:29:43;;;;;;;5.17;1.40;;;;;;;14.75;100.00;101119.09;5020353;28;20311;-61
2023/08/29 10:32:15;;;;;;;11.80;1.83;;;;;;;14.71;100.00;101124.44;5010060;28;20284;-60
2023/08/29 10:34:47;;;;;;;5.23;1.57;;;;;;;14.71;100.00;101127.06;5020424;28;20295;-60
2023/08/29 10:37:22;;;;;;;3.77;1.10;;;;;;;14.62;100.00;101115.81;5010192;28;20804;-63
2023/08/29 10:39:53;;;;;;;6.87;1.40;;;;;;;14.66;100.00;101122.75;5019544;28;20287;-60
2023/08/29 10:42:25;;;;;;;3.33;1.20;;;;;;;14.64;100.00;101127.16;4998041;28;20298;-60
2023/08/29 10:44:57;;;;;;;5.30;1.00;;;;;;;14.61;100.00;101129.88;5016738;28;20382;-62
2023/08/29 10:47:31;;;;;;;6.33;1.57;;;;;;;14.62;100.00;101134.22;5010042;28;20279;-61
2023/08/29 10:50:05;;;;;;;6.97;1.20;;;;;;;14.60;100.00;101128.16;5010957;28;20294;-61
2023/08/29 10:52:40;;;;;;;3.50;1.40;;;;;;;14.62;100.00;101136.00;5020179;28;20364;-62
2023/08/29 10:55:23;;;;;;;5.27;1.40;;;;;;;14.63;100.00;101135.97;5010624;28;20390;-61
2023/08/29 10:57:58;;;;;;;3.83;1.03;;;;;;;14.63;100.00;101146.50;5019843;28;20770;-62
2023/08/29 11:00:54;;;;;;;2.70;1.10;;;;;;;14.19;100.00;101077.16;4991355;28;20279;-61
2023/08/29 11:03:42;;;;;;;5.00;1.20;;;;;;;14.76;100.00;101148.88;5001748;28;20272;-61
2023/08/29 11:06:13;;;;;;;6.40;1.40;;;;;;;14.78;100.00;101149.72;4993152;28;20367;-62
2023/08/29 11:08:48;;;;;;;5.70;1.30;;;;;;;14.83;100.00;101153.13;5003766;28;20292;-62
2023/08/29 11:11:21;;;;;;;6.70;1.40;;;;;;;14.88;100.00;101156.53;4993593;28;20277;-61
2023/08/29 11:14:03;;;;;;;4.53;1.30;;;;;;;14.94;100.00;101151.13;5004002;28;20360;-60
2023/08/29 11:16:37;;;;;;;4.47;1.30;;;;;;;14.86;100.00;101129.38;4992763;28;20686;-60
2023/08/29 11:19:13;;;;;;;3.83;1.20;;;;;;;15.00;100.00;101150.13;5011271;28;20424;-62
2023/08/29 11:21:46;;;;;;;4.53;1.50;;;;;;;14.98;100.00;101137.03;5022740;28;20282;-61
2023/08/29 11:24:23;;;;;;;6.20;1.40;;;;;;;14.99;100.00;101143.16;5013740;28;20272;-62
2023/08/29 11:26:59;;;;;;;3.37;1.47;;;;;;;15.00;100.00;101155.41;5021739;28;20742;-61
2023/08/29 11:29:38;;;;;;;6.70;1.87;;;;;;;14.98;100.00;101136.19;4992885;28;20272;-60
2023/08/29 11:32:09;;;;;;;6.67;1.20;;;;;;;15.01;100.00;101157.16;5003587;28;20319;-61
2023/08/29 11:34:40;;;;;;;3.30;1.30;;;;;;;15.03;100.00;101156.22;5023924;28;20374;-61
2023/08/29 11:37:12;;;;;;;4.30;1.53;;;;;;;15.01;100.00;101147.50;5013385;28;20307;-61
2023/08/29 11:39:55;;;;;;;4.47;1.40;;;;;;;14.98;100.00;101155.47;5023160;28;20284;-61
2023/08/29 11:42:31;;;;;;;6.60;1.70;;;;;;;14.97;100.00;101161.59;5012299;28;20283;-61
2023/08/29 11:45:23;;;;;;;7.33;1.87;;;;;;;14.97;100.00;101161.59;5013926;28;20323;-61
2023/08/29 11:48:15;;;;;;;5.03;1.70;;;;;;;14.86;100.00;101150.44;5012523;28;20284;-61
2023/08/29 11:50:47;;;;;;;6.83;1.57;;;;;;;14.90;100.00;101154.72;5022913;28;21129;-62
2023/08/29 11:53:31;;;;;;;6.70;1.90;;;;;;;14.86;100.00;101153.06;5013115;28;20283;-59